createdAt,value
2023-07-30T00:01:05.806Z,94.67
2023-07-30T00:03:08.640Z,94.75
2023-07-30T00:05:11.262Z,95.15
2023-07-30T00:07:14.603Z,95.17
2023-07-30T00:09:17.922Z,95.46
2023-07-30T00:11:20.613Z,95.59
2023-07-30T00:13:23.521Z,95.71
2023-07-30T00:15:26.192Z,95.78
2023-07-30T00:17:28.884Z,95.74
2023-07-30T00:19:31.515Z,96.15
2023-07-30T00:21:34.252Z,96.33
2023-07-30T00:23:36.885Z,96.68
2023-07-30T00:25:39.463Z,97.13
2023-07-30T00:27:42.131Z,96.91
2023-07-30T00:29:44.732Z,97.37
2023-07-30T00:31:47.609Z,97.81
2023-07-30T00:33:50.341Z,97.88
2023-07-30T00:35:53.867Z,98.35
2023-07-30T00:37:56.759Z,98.39
2023-07-30T00:39:59.308Z,98.55
2023-07-30T00:42:01.962Z,98.72
2023-07-30T00:44:05.780Z,98.87
2023-07-30T00:46:08.596Z,98.28
2023-07-30T00:48:12.857Z,98.46
2023-07-30T00:50:16.724Z,98.71
2023-07-30T00:52:21.725Z,98.81
2023-07-30T00:54:26.400Z,98.60
2023-07-30T00:56:29.335Z,98.31
2023-07-30T00:58:34.141Z,98.84
2023-07-30T01:00:37.112Z,98.80
2023-07-30T01:02:39.964Z,98.97
2023-07-30T01:04:43.601Z,99.16
2023-07-30T01:06:46.290Z,99.69
2023-07-30T01:08:49.731Z,99.82
2023-07-30T01:10:52.728Z,99.61
2023-07-30T01:12:55.758Z,99.67
2023-07-30T01:14:59.617Z,99.53
2023-07-30T01:17:02.415Z,99.70
2023-07-30T01:19:06.718Z,99.74
2023-07-30T01:21:09.342Z,99.75
2023-07-30T01:23:11.949Z,99.93
2023-07-30T01:25:15.818Z,100.00
2023-07-30T01:27:29.281Z,100.00
2023-07-30T01:29:51.948Z,100.00
2023-07-30T01:32:03.176Z,100.00
2023-07-30T01:34:06.824Z,100.00
2023-07-30T01:36:13.774Z,100.00
2023-07-30T01:38:17.256Z,100.00
2023-07-30T01:40:20.780Z,100.00
2023-07-30T01:42:30.037Z,100.00
2023-07-30T01:44:32.848Z,100.00
2023-07-30T01:46:35.644Z,100.00
2023-07-30T01:48:38.288Z,100.00
2023-07-30T01:50:40.987Z,100.00
2023-07-30T01:52:43.615Z,100.00
2023-07-30T01:54:46.343Z,100.00
2023-07-30T01:56:49.297Z,100.00
2023-07-30T01:58:52.120Z,100.00
2023-07-30T02:00:54.738Z,100.00
2023-07-30T02:02:57.446Z,100.00
2023-07-30T02:05:00.155Z,100.00
2023-07-30T02:07:02.760Z,100.00
2023-07-30T02:09:05.358Z,99.73
2023-07-30T02:11:08.042Z,99.30
2023-07-30T02:13:10.873Z,99.39
2023-07-30T02:15:13.612Z,99.14
2023-07-30T02:17:16.678Z,99.10
2023-07-30T02:19:19.867Z,99.13
2023-07-30T02:21:22.439Z,98.92
2023-07-30T02:23:25.120Z,98.53
2023-07-30T02:25:27.748Z,98.31
2023-07-30T02:27:30.334Z,97.85
2023-07-30T02:29:33.049Z,97.61
2023-07-30T02:31:36.055Z,97.60
2023-07-30T02:33:38.980Z,97.36
2023-07-30T02:35:41.582Z,97.11
2023-07-30T02:37:44.191Z,97.23
2023-07-30T02:39:46.826Z,97.13
2023-07-30T02:41:49.582Z,97.32
2023-07-30T02:43:52.154Z,96.95
2023-07-30T02:45:54.782Z,96.82
2023-07-30T02:47:57.553Z,96.68
2023-07-30T02:50:00.233Z,96.28
2023-07-30T02:52:02.927Z,96.18
2023-07-30T02:54:06.752Z,96.02
2023-07-30T02:56:09.294Z,95.68
2023-07-30T02:58:11.931Z,95.23
2023-07-30T03:00:14.927Z,94.73
2023-07-30T03:02:17.528Z,94.03
2023-07-30T03:04:20.422Z,93.61
2023-07-30T03:06:23.278Z,93.37
2023-07-30T03:08:25.845Z,92.50
2023-07-30T03:10:28.537Z,91.40
2023-07-30T03:12:31.085Z,91.12
2023-07-30T03:14:33.660Z,90.81
2023-07-30T03:16:36.317Z,90.49
2023-07-30T03:18:39.071Z,90.41
2023-07-30T03:20:41.781Z,89.71
2023-07-30T03:22:44.609Z,89.30
2023-07-30T03:24:48.995Z,88.47
2023-07-30T03:26:51.666Z,87.71
2023-07-30T03:28:54.271Z,87.54
2023-07-30T03:30:56.903Z,87.58
2023-07-30T03:32:59.600Z,85.54
2023-07-30T03:35:02.259Z,85.36
2023-07-30T03:37:07.370Z,84.76
2023-07-30T03:39:10.029Z,84.91
2023-07-30T03:41:12.755Z,84.13
2023-07-30T03:43:15.444Z,83.75
2023-07-30T03:45:18.375Z,82.60
2023-07-30T03:47:21.077Z,82.38
2023-07-30T03:49:23.707Z,82.27
2023-07-30T03:51:26.532Z,82.15
2023-07-30T03:53:29.141Z,81.79
2023-07-30T03:55:31.921Z,81.21
2023-07-30T03:57:34.582Z,81.22
2023-07-30T03:59:37.272Z,80.67
2023-07-30T04:01:40.212Z,81.49
2023-07-30T04:03:43.226Z,80.83
2023-07-30T04:05:46.064Z,80.47
2023-07-30T04:07:48.816Z,81.36
2023-07-30T04:09:51.441Z,80.97
2023-07-30T04:11:54.025Z,81.31
2023-07-30T04:13:56.713Z,82.66
2023-07-30T04:15:59.350Z,83.48
2023-07-30T04:18:02.000Z,82.16
2023-07-30T04:20:05.572Z,81.41
2023-07-30T04:22:08.296Z,81.12
2023-07-30T04:24:10.940Z,80.63
2023-07-30T04:26:13.668Z,80.95
2023-07-30T04:28:16.352Z,81.20
2023-07-30T04:30:19.232Z,81.95
2023-07-30T04:32:21.910Z,81.64
2023-07-30T04:34:24.650Z,81.02
2023-07-30T04:36:27.225Z,81.26
2023-07-30T04:38:30.918Z,81.59
2023-07-30T04:40:33.739Z,81.17
2023-07-30T04:42:36.563Z,81.62
2023-07-30T04:44:39.246Z,81.59
2023-07-30T04:46:41.867Z,80.98
2023-07-30T04:48:44.501Z,81.46
2023-07-30T04:50:47.167Z,81.76
2023-07-30T04:52:50.016Z,81.98
2023-07-30T04:54:52.593Z,80.82
2023-07-30T04:56:55.181Z,79.79
2023-07-30T04:58:57.862Z,80.14
2023-07-30T05:01:00.564Z,78.26
2023-07-30T05:03:03.302Z,76.47
2023-07-30T05:05:07.104Z,75.67
2023-07-30T05:07:09.855Z,74.15
2023-07-30T05:09:15.471Z,74.17
2023-07-30T05:11:18.071Z,73.03
2023-07-30T05:13:20.758Z,72.79
2023-07-30T05:15:23.398Z,73.39
2023-07-30T05:17:26.028Z,71.55
2023-07-30T05:19:28.612Z,72.01
2023-07-30T05:21:31.250Z,73.26
2023-07-30T05:23:33.872Z,73.69
2023-07-30T05:25:36.953Z,73.89
2023-07-30T05:27:39.586Z,73.46
2023-07-30T05:29:42.331Z,73.38
2023-07-30T05:31:44.921Z,73.92
2023-07-30T05:33:47.593Z,73.44
2023-07-30T05:35:50.260Z,74.13
2023-07-30T05:37:53.032Z,74.23
2023-07-30T05:39:55.603Z,73.89
2023-07-30T05:41:58.258Z,71.97
2023-07-30T05:44:00.927Z,71.43
2023-07-30T05:46:03.600Z,71.07
2023-07-30T05:48:06.453Z,71.20
2023-07-30T05:50:09.767Z,71.54
2023-07-30T05:52:13.735Z,70.07
2023-07-30T05:54:16.445Z,70.14
2023-07-30T05:56:20.027Z,70.36
2023-07-30T05:58:22.684Z,70.49
2023-07-30T06:00:25.612Z,70.19
2023-07-30T06:02:28.258Z,70.04
2023-07-30T06:04:32.057Z,70.30
2023-07-30T06:06:34.605Z,70.38
2023-07-30T06:08:37.214Z,70.47
2023-07-30T06:10:41.480Z,70.86
2023-07-30T06:12:44.269Z,71.03
2023-07-30T06:14:46.915Z,71.00
2023-07-30T06:16:49.631Z,71.69
2023-07-30T06:18:52.354Z,71.43
2023-07-30T06:20:55.037Z,70.89
2023-07-30T06:22:57.861Z,71.86
2023-07-30T06:25:00.471Z,69.73
2023-07-30T06:27:03.240Z,71.60
2023-07-30T06:29:05.911Z,69.76
2023-07-30T06:31:08.629Z,68.70
2023-07-30T06:33:11.186Z,71.38
2023-07-30T06:35:13.813Z,69.54
2023-07-30T06:37:16.620Z,68.50
2023-07-30T06:39:19.251Z,68.20
2023-07-30T06:41:22.650Z,65.19
2023-07-30T06:43:25.509Z,63.61
2023-07-30T06:45:28.111Z,62.52
2023-07-30T06:47:30.728Z,62.83
2023-07-30T06:49:35.645Z,64.06
2023-07-30T06:51:38.602Z,63.34
2023-07-30T06:53:41.693Z,64.58
2023-07-30T06:55:44.861Z,62.80
2023-07-30T06:57:47.523Z,64.77
2023-07-30T06:59:50.079Z,63.81
2023-07-30T07:01:52.817Z,63.41
2023-07-30T07:03:55.567Z,63.12
2023-07-30T07:05:58.433Z,63.33
2023-07-30T07:08:01.096Z,63.40
2023-07-30T07:10:03.850Z,63.67
2023-07-30T07:12:08.006Z,61.48
2023-07-30T07:14:10.713Z,61.15
2023-07-30T07:16:13.362Z,60.86
2023-07-30T07:18:16.256Z,62.37
2023-07-30T07:20:19.576Z,59.68
2023-07-30T07:22:22.283Z,60.00
2023-07-30T07:24:24.942Z,60.56
2023-07-30T07:26:27.613Z,58.72
2023-07-30T07:28:30.271Z,59.99
2023-07-30T07:30:37.105Z,60.11
2023-07-30T07:32:40.161Z,56.77
2023-07-30T07:34:42.814Z,57.25
2023-07-30T07:36:45.396Z,57.59
2023-07-30T07:38:47.986Z,56.34
2023-07-30T07:40:52.337Z,56.50
2023-07-30T07:42:56.748Z,56.88
2023-07-30T07:44:59.710Z,58.86
2023-07-30T07:47:02.375Z,56.21
2023-07-30T07:49:05.042Z,56.94
2023-07-30T07:51:08.115Z,56.49
2023-07-30T07:53:10.813Z,57.79
2023-07-30T07:55:13.581Z,58.30
2023-07-30T07:57:16.316Z,56.41
2023-07-30T07:59:19.006Z,56.32
2023-07-30T08:01:21.751Z,56.23
2023-07-30T08:03:25.133Z,57.29
2023-07-30T08:05:28.109Z,56.68
2023-07-30T08:07:30.877Z,57.48
2023-07-30T08:09:33.589Z,55.89
2023-07-30T08:11:36.522Z,57.12
2023-07-30T08:13:40.455Z,56.61
2023-07-30T08:15:43.076Z,56.56
2023-07-30T08:17:45.771Z,56.86
2023-07-30T08:19:48.490Z,57.04
2023-07-30T08:21:51.122Z,56.35
2023-07-30T08:23:53.788Z,55.99
2023-07-30T08:25:56.542Z,56.21
2023-07-30T08:27:59.164Z,56.64
2023-07-30T08:30:02.002Z,58.19
2023-07-30T08:32:07.823Z,58.14
2023-07-30T08:34:10.544Z,57.71
2023-07-30T08:36:13.177Z,57.54
2023-07-30T08:38:15.760Z,56.55
2023-07-30T08:40:18.557Z,57.16
2023-07-30T08:42:22.472Z,56.39
2023-07-30T08:44:25.192Z,56.43
2023-07-30T08:46:28.871Z,56.52
2023-07-30T08:48:31.622Z,55.65
2023-07-30T08:50:35.604Z,55.64
2023-07-30T08:52:38.446Z,57.77
2023-07-30T08:54:42.506Z,54.05
2023-07-30T08:56:45.360Z,53.73
2023-07-30T08:58:50.616Z,51.96
2023-07-30T09:00:56.373Z,52.46
2023-07-30T09:03:01.397Z,52.45
2023-07-30T09:05:04.590Z,52.57
2023-07-30T09:07:12.679Z,50.98
2023-07-30T09:09:15.276Z,53.08
2023-07-30T09:11:18.235Z,53.56
2023-07-30T09:13:26.663Z,52.53
2023-07-30T09:15:40.926Z,49.98
2023-07-30T09:17:43.758Z,50.06
2023-07-30T09:19:48.388Z,51.31
2023-07-30T09:21:51.131Z,51.29
2023-07-30T09:23:53.767Z,52.17
2023-07-30T09:25:59.555Z,50.74
2023-07-30T09:28:02.676Z,51.37
2023-07-30T09:30:07.205Z,50.76
2023-07-30T09:32:10.640Z,50.96
2023-07-30T09:34:17.389Z,53.84
2023-07-30T09:36:21.152Z,52.06
2023-07-30T09:38:23.852Z,51.63
2023-07-30T09:40:40.175Z,49.40
2023-07-30T09:42:48.576Z,50.35
2023-07-30T09:44:52.553Z,51.43
2023-07-30T09:46:55.233Z,49.32
2023-07-30T09:48:58.915Z,49.48
2023-07-30T09:51:04.253Z,49.23
2023-07-30T09:53:07.235Z,48.96
2023-07-30T09:55:09.952Z,49.79
2023-07-30T09:57:12.717Z,50.84
2023-07-30T09:59:15.481Z,49.78
2023-07-30T10:01:22.858Z,49.30
2023-07-30T10:03:25.489Z,48.73
2023-07-30T10:05:35.261Z,47.45
2023-07-30T10:07:42.549Z,49.01
2023-07-30T10:09:48.086Z,48.60
2023-07-30T10:11:54.897Z,49.12
2023-07-30T10:13:58.058Z,48.08
2023-07-30T10:16:00.753Z,47.80
2023-07-30T10:18:04.932Z,47.93
2023-07-30T10:20:27.948Z,48.33
2023-07-30T10:22:33.222Z,46.38
2023-07-30T10:24:35.779Z,47.59
2023-07-30T10:26:38.730Z,46.98
2023-07-30T10:28:44.959Z,44.89
2023-07-30T10:31:00.742Z,46.23
2023-07-30T10:33:05.276Z,44.94
2023-07-30T10:35:08.228Z,44.68
2023-07-30T10:37:10.956Z,45.33
2023-07-30T10:39:19.365Z,45.23
2023-07-30T10:41:22.674Z,44.89
2023-07-30T10:43:32.571Z,43.35
2023-07-30T10:45:35.209Z,45.01
2023-07-30T10:47:37.888Z,43.59
2023-07-30T10:49:48.479Z,43.47
2023-07-30T10:51:55.582Z,43.62
2023-07-30T10:53:58.335Z,43.55
2023-07-30T10:56:04.918Z,43.84
2023-07-30T10:58:07.700Z,44.39
2023-07-30T11:00:11.737Z,44.06
2023-07-30T11:02:16.386Z,42.96
2023-07-30T11:04:21.103Z,45.00
2023-07-30T11:06:25.189Z,44.90
2023-07-30T11:08:38.512Z,44.62
2023-07-30T11:10:48.321Z,43.87
2023-07-30T11:12:51.317Z,44.41
2023-07-30T11:15:04.729Z,42.43
2023-07-30T11:17:09.918Z,42.67
2023-07-30T11:19:14.781Z,42.64
2023-07-30T11:21:19.129Z,42.38
2023-07-30T11:23:24.861Z,42.20
2023-07-30T11:25:27.498Z,43.78
2023-07-30T11:27:30.928Z,44.68
2023-07-30T11:29:33.623Z,43.75
2023-07-30T11:31:36.505Z,42.60
2023-07-30T11:33:45.353Z,43.41
2023-07-30T11:35:48.297Z,43.48
2023-07-30T11:37:50.983Z,43.31
2023-07-30T11:39:53.887Z,43.55
2023-07-30T11:41:56.730Z,42.51
2023-07-30T11:43:59.524Z,42.47
2023-07-30T11:46:09.979Z,43.17
2023-07-30T11:48:13.574Z,44.61
2023-07-30T11:50:16.928Z,43.99
2023-07-30T11:52:19.685Z,45.24
2023-07-30T11:54:26.276Z,44.91
2023-07-30T11:56:31.850Z,43.77
2023-07-30T11:58:34.744Z,43.65
2023-07-30T12:00:38.979Z,42.80
2023-07-30T12:02:42.481Z,44.25
2023-07-30T12:04:49.091Z,44.68
2023-07-30T12:06:56.022Z,43.94
2023-07-30T12:08:59.913Z,44.71
2023-07-30T12:11:07.321Z,44.57
2023-07-30T12:13:21.075Z,43.72
2023-07-30T12:15:24.198Z,44.89
2023-07-30T12:17:27.001Z,43.83
2023-07-30T12:19:29.739Z,43.54
2023-07-30T12:21:32.409Z,43.44
2023-07-30T12:23:39.532Z,43.57
2023-07-30T12:25:42.292Z,43.07
2023-07-30T12:27:44.886Z,43.18
2023-07-30T12:29:47.539Z,44.11
2023-07-30T12:31:53.081Z,43.11
2023-07-30T12:33:56.526Z,43.51
2023-07-30T12:35:59.260Z,44.47
2023-07-30T12:38:02.370Z,44.90
2023-07-30T12:40:05.616Z,44.84
2023-07-30T12:42:08.359Z,46.06
2023-07-30T12:44:11.000Z,46.50
2023-07-30T12:46:13.722Z,47.12
2023-07-30T12:48:16.393Z,46.24
2023-07-30T12:50:18.982Z,46.56
2023-07-30T12:52:21.824Z,45.95
2023-07-30T12:54:24.428Z,43.93
2023-07-30T12:56:27.252Z,42.94
2023-07-30T12:58:30.037Z,42.46
2023-07-30T13:00:34.208Z,41.21
2023-07-30T13:02:37.436Z,42.08
2023-07-30T13:04:40.038Z,42.40
2023-07-30T13:06:42.615Z,41.30
2023-07-30T13:08:45.234Z,40.93
2023-07-30T13:10:48.072Z,40.43
2023-07-30T13:12:50.642Z,40.38
2023-07-30T13:14:53.312Z,41.24
2023-07-30T13:16:55.881Z,41.99
2023-07-30T13:18:58.532Z,41.62
2023-07-30T13:21:01.140Z,43.21
2023-07-30T13:23:03.854Z,43.46
2023-07-30T13:25:06.728Z,42.73
2023-07-30T13:27:09.381Z,43.02
2023-07-30T13:29:12.214Z,42.85
2023-07-30T13:31:14.918Z,42.91
2023-07-30T13:33:17.908Z,44.23
2023-07-30T13:35:21.813Z,44.17
2023-07-30T13:37:24.353Z,45.11
2023-07-30T13:39:27.176Z,45.26
2023-07-30T13:41:29.779Z,45.39
2023-07-30T13:43:33.060Z,45.65
2023-07-30T13:45:35.630Z,46.68
2023-07-30T13:47:38.308Z,46.71
2023-07-30T13:49:41.061Z,46.74
2023-07-30T13:51:43.670Z,46.01
2023-07-30T13:53:46.422Z,45.51
2023-07-30T13:55:49.375Z,45.94
2023-07-30T13:57:51.944Z,44.67
2023-07-30T13:59:54.859Z,43.85
2023-07-30T14:01:57.601Z,44.22
2023-07-30T14:04:00.305Z,45.40
2023-07-30T14:06:02.918Z,45.65
2023-07-30T14:08:05.858Z,45.76
2023-07-30T14:10:08.765Z,46.07
2023-07-30T14:12:11.869Z,46.91
2023-07-30T14:14:14.678Z,47.26
2023-07-30T14:16:17.343Z,48.19
2023-07-30T14:18:20.037Z,48.26
2023-07-30T14:20:23.016Z,49.65
2023-07-30T14:22:25.740Z,49.10
2023-07-30T14:24:28.915Z,48.62
2023-07-30T14:26:31.512Z,48.00
2023-07-30T14:28:34.292Z,47.91
2023-07-30T14:30:37.088Z,48.33
2023-07-30T14:32:39.765Z,48.39
2023-07-30T14:34:42.424Z,48.58
2023-07-30T14:36:45.110Z,48.83
2023-07-30T14:38:47.675Z,49.01
2023-07-30T14:40:50.398Z,49.42
2023-07-30T14:42:53.116Z,49.84
2023-07-30T14:44:55.737Z,49.79
2023-07-30T14:46:59.617Z,49.37
2023-07-30T14:49:03.526Z,49.69
2023-07-30T14:51:06.123Z,49.84
2023-07-30T14:53:08.715Z,50.49
2023-07-30T14:55:11.392Z,51.09
2023-07-30T14:57:13.989Z,50.56
2023-07-30T14:59:16.737Z,50.45
2023-07-30T15:01:19.416Z,49.98
2023-07-30T15:03:22.079Z,50.72
2023-07-30T15:05:24.771Z,50.96
2023-07-30T15:07:29.192Z,50.53
2023-07-30T15:09:36.049Z,50.50
2023-07-30T15:11:38.745Z,51.45
2023-07-30T15:13:41.808Z,51.42
2023-07-30T15:15:45.440Z,51.33
2023-07-30T15:17:48.035Z,50.90
2023-07-30T15:19:52.260Z,50.73
2023-07-30T15:21:54.969Z,51.55
2023-07-30T15:23:59.373Z,51.81
2023-07-30T15:26:01.931Z,51.48
2023-07-30T15:28:04.883Z,51.37
2023-07-30T15:30:09.092Z,51.31
2023-07-30T15:32:12.048Z,51.08
2023-07-30T15:34:15.613Z,51.38
2023-07-30T15:36:18.171Z,52.01
2023-07-30T15:38:20.830Z,52.00
2023-07-30T15:40:23.505Z,51.81
2023-07-30T15:42:26.122Z,52.46
2023-07-30T15:44:29.182Z,52.24
2023-07-30T15:46:31.825Z,52.31
2023-07-30T15:48:34.933Z,52.83
2023-07-30T15:50:37.514Z,52.43
2023-07-30T15:52:40.143Z,53.16
2023-07-30T15:54:42.873Z,53.12
2023-07-30T15:56:45.506Z,53.14
2023-07-30T15:58:48.057Z,53.32
2023-07-30T16:00:50.675Z,54.09
2023-07-30T16:02:53.503Z,54.96
2023-07-30T16:04:56.175Z,54.74
2023-07-30T16:07:01.596Z,54.99
2023-07-30T16:09:04.406Z,54.58
2023-07-30T16:11:08.726Z,54.79
2023-07-30T16:13:11.621Z,55.00
2023-07-30T16:15:14.435Z,54.78
2023-07-30T16:17:17.136Z,55.42
2023-07-30T16:19:19.858Z,55.21
2023-07-30T16:21:22.440Z,54.81
2023-07-30T16:23:25.013Z,54.69
2023-07-30T16:25:27.671Z,55.00
2023-07-30T16:27:30.358Z,55.43
2023-07-30T16:29:34.000Z,55.58
2023-07-30T16:31:36.805Z,56.30
2023-07-30T16:33:39.495Z,56.18
2023-07-30T16:35:42.050Z,56.24
2023-07-30T16:37:46.033Z,56.54
2023-07-30T16:39:48.662Z,57.12
2023-07-30T16:41:51.259Z,57.27
2023-07-30T16:43:55.487Z,57.45
2023-07-30T16:46:03.030Z,57.92
2023-07-30T16:48:05.953Z,58.10
2023-07-30T16:50:09.192Z,58.72
2023-07-30T16:52:11.748Z,59.15
2023-07-30T16:54:15.275Z,59.42
2023-07-30T16:56:18.485Z,59.95
2023-07-30T16:58:21.064Z,60.27
2023-07-30T17:00:24.004Z,61.00
2023-07-30T17:02:26.725Z,61.04
2023-07-30T17:04:29.497Z,61.66
2023-07-30T17:06:32.359Z,62.13
2023-07-30T17:08:35.023Z,62.24
2023-07-30T17:10:38.118Z,62.87
2023-07-30T17:12:40.866Z,63.31
2023-07-30T17:14:43.479Z,63.65
2023-07-30T17:16:46.661Z,63.88
2023-07-30T17:18:51.953Z,63.83
2023-07-30T17:20:58.425Z,64.05
2023-07-30T17:23:01.219Z,63.93
2023-07-30T17:25:05.956Z,64.07
2023-07-30T17:27:08.828Z,64.55
2023-07-30T17:29:11.533Z,64.89
2023-07-30T17:31:14.327Z,64.95
2023-07-30T17:33:17.024Z,65.25
2023-07-30T17:35:20.675Z,65.58
2023-07-30T17:37:23.387Z,66.15
2023-07-30T17:39:25.953Z,66.28
2023-07-30T17:41:29.058Z,66.57
2023-07-30T17:43:32.052Z,66.97
2023-07-30T17:45:37.916Z,67.17
2023-07-30T17:47:40.941Z,67.47
2023-07-30T17:49:43.563Z,67.35
2023-07-30T17:51:46.533Z,67.71
2023-07-30T17:53:52.331Z,68.26
2023-07-30T17:55:56.179Z,68.13
2023-07-30T17:57:59.032Z,68.43
2023-07-30T18:00:01.627Z,68.27
2023-07-30T18:02:05.754Z,68.06
2023-07-30T18:04:08.375Z,68.15
2023-07-30T18:06:10.978Z,68.46
2023-07-30T18:08:13.701Z,69.00
2023-07-30T18:10:16.581Z,69.39
2023-07-30T18:12:19.637Z,69.78
2023-07-30T18:14:23.129Z,70.05
2023-07-30T18:16:25.826Z,69.95
2023-07-30T18:18:28.544Z,69.95
2023-07-30T18:20:32.833Z,70.07
2023-07-30T18:22:35.635Z,70.10
2023-07-30T18:24:39.749Z,69.79
2023-07-30T18:26:43.234Z,69.80
2023-07-30T18:28:46.908Z,70.35
2023-07-30T18:30:49.471Z,70.78
2023-07-30T18:32:52.218Z,70.82
2023-07-30T18:34:55.373Z,71.14
2023-07-30T18:36:57.917Z,71.00
2023-07-30T18:39:00.630Z,71.03
2023-07-30T18:41:06.790Z,70.91
2023-07-30T18:43:09.435Z,71.09
2023-07-30T18:45:12.064Z,71.23
2023-07-30T18:47:14.695Z,71.46
2023-07-30T18:49:18.851Z,71.72
2023-07-30T18:51:21.462Z,72.06
2023-07-30T18:53:24.623Z,72.71
2023-07-30T18:55:27.243Z,72.96
2023-07-30T18:57:29.815Z,73.16
2023-07-30T18:59:32.394Z,73.40
2023-07-30T19:01:36.181Z,73.35
2023-07-30T19:03:38.917Z,73.73
2023-07-30T19:05:41.713Z,73.81
2023-07-30T19:07:44.309Z,73.82
2023-07-30T19:09:48.063Z,73.77
2023-07-30T19:11:50.846Z,73.90
2023-07-30T19:13:53.392Z,73.89
2023-07-30T19:15:56.283Z,73.83
2023-07-30T19:17:59.024Z,73.99
2023-07-30T19:20:01.777Z,74.14
2023-07-30T19:22:07.111Z,74.17
2023-07-30T19:24:09.860Z,74.37
2023-07-30T19:26:12.519Z,74.33
2023-07-30T19:28:15.450Z,74.07
2023-07-30T19:30:18.229Z,74.35
2023-07-30T19:32:20.836Z,74.45
2023-07-30T19:34:23.589Z,74.88
2023-07-30T19:36:26.241Z,75.09
2023-07-30T19:38:29.507Z,75.27
2023-07-30T19:40:32.815Z,75.62
2023-07-30T19:42:35.509Z,75.77
2023-07-30T19:44:38.156Z,75.89
2023-07-30T19:46:41.136Z,75.76
2023-07-30T19:48:45.394Z,75.98
2023-07-30T19:50:48.570Z,76.20
2023-07-30T19:52:51.211Z,76.45
2023-07-30T19:54:55.231Z,76.64
2023-07-30T19:56:57.958Z,76.81
2023-07-30T19:59:00.578Z,76.51
2023-07-30T20:01:03.753Z,76.59
2023-07-30T20:03:06.533Z,76.55
2023-07-30T20:05:09.377Z,76.83
2023-07-30T20:07:12.375Z,77.24
2023-07-30T20:09:15.082Z,77.56
2023-07-30T20:11:17.766Z,78.00
2023-07-30T20:13:20.541Z,78.31
2023-07-30T20:15:23.150Z,78.33
2023-07-30T20:17:25.760Z,78.23
2023-07-30T20:19:28.876Z,78.45
2023-07-30T20:21:31.515Z,78.53
2023-07-30T20:23:34.234Z,78.73
2023-07-30T20:25:38.419Z,78.96
2023-07-30T20:27:41.154Z,79.23
2023-07-30T20:29:44.757Z,79.21
2023-07-30T20:31:47.497Z,79.12
2023-07-30T20:33:50.448Z,78.92
2023-07-30T20:35:53.036Z,78.88
2023-07-30T20:37:59.063Z,79.08
2023-07-30T20:40:02.161Z,78.76
2023-07-30T20:42:08.133Z,78.48
2023-07-30T20:44:10.932Z,78.27
2023-07-30T20:46:14.452Z,78.27
2023-07-30T20:48:17.306Z,77.93
2023-07-30T20:50:20.247Z,78.27
2023-07-30T20:52:23.004Z,78.51
2023-07-30T20:54:25.624Z,78.58
2023-07-30T20:56:28.717Z,78.92
2023-07-30T20:58:31.963Z,79.17
2023-07-30T21:00:34.512Z,79.70
2023-07-30T21:02:37.738Z,79.86
2023-07-30T21:04:41.311Z,79.96
2023-07-30T21:06:43.843Z,79.81
2023-07-30T21:08:46.549Z,80.00
2023-07-30T21:10:49.117Z,80.07
2023-07-30T21:12:51.785Z,80.10
2023-07-30T21:14:54.468Z,80.22
2023-07-30T21:16:57.064Z,80.15
2023-07-30T21:18:59.755Z,80.69
2023-07-30T21:21:02.472Z,81.19
2023-07-30T21:23:05.165Z,81.42
2023-07-30T21:25:08.345Z,81.58
2023-07-30T21:27:11.085Z,81.72
2023-07-30T21:29:13.729Z,81.97
2023-07-30T21:31:16.448Z,82.21
2023-07-30T21:35:21.539Z,83.01
2023-07-30T21:37:24.616Z,83.52
2023-07-30T21:39:27.294Z,84.09
2023-07-30T21:43:32.650Z,84.65
2023-07-30T21:45:35.480Z,84.96
2023-07-30T21:47:38.169Z,85.17
2023-07-30T21:49:40.815Z,85.62
2023-07-30T21:51:43.545Z,86.06
2023-07-30T21:53:46.222Z,86.13
2023-07-30T21:55:48.972Z,86.32
2023-07-30T21:57:51.803Z,86.54
2023-07-30T21:59:54.645Z,86.73
2023-07-30T22:01:57.244Z,86.88
2023-07-30T22:04:00.606Z,87.10
2023-07-30T22:06:03.171Z,87.57
2023-07-30T22:08:05.732Z,87.85
2023-07-30T22:10:10.521Z,88.02
2023-07-30T22:12:13.229Z,87.83
2023-07-30T22:14:15.788Z,88.33
2023-07-30T22:16:18.525Z,88.27
2023-07-30T22:18:21.181Z,88.14
2023-07-30T22:20:23.746Z,88.87
2023-07-30T22:22:27.512Z,89.01
2023-07-30T22:24:30.114Z,89.59
2023-07-30T22:26:32.724Z,90.21
2023-07-30T22:28:35.491Z,89.90
2023-07-30T22:30:41.669Z,90.55
2023-07-30T22:32:45.414Z,90.35
2023-07-30T22:34:48.084Z,91.37
2023-07-30T22:36:50.779Z,91.06
2023-07-30T22:38:53.523Z,91.12
2023-07-30T22:40:56.144Z,91.30
2023-07-30T22:42:58.718Z,91.66
2023-07-30T22:45:04.365Z,91.43
2023-07-30T22:47:07.863Z,91.64
2023-07-30T22:49:10.470Z,91.32
2023-07-30T22:51:13.026Z,91.45
2023-07-30T22:53:15.808Z,91.68
2023-07-30T22:55:18.404Z,92.57
2023-07-30T22:57:20.996Z,92.64
2023-07-30T22:59:23.759Z,92.67
2023-07-30T23:01:26.474Z,92.69
2023-07-30T23:03:29.273Z,92.74
2023-07-30T23:05:32.170Z,93.23
2023-07-30T23:07:34.830Z,93.35
2023-07-30T23:09:37.396Z,93.21
2023-07-30T23:11:41.567Z,93.38
2023-07-30T23:13:44.392Z,93.41
2023-07-30T23:15:47.060Z,93.75
2023-07-30T23:17:49.766Z,93.51
2023-07-30T23:19:52.357Z,93.66
2023-07-30T23:21:55.050Z,93.55
2023-07-30T23:23:57.761Z,93.67
2023-07-30T23:26:00.364Z,93.83
2023-07-30T23:28:03.085Z,93.93
2023-07-30T23:30:06.655Z,93.43
2023-07-30T23:32:09.402Z,93.19
2023-07-30T23:34:12.032Z,93.00
2023-07-30T23:36:16.927Z,93.33
2023-07-30T23:38:20.021Z,93.52
2023-07-30T23:40:24.240Z,93.78
2023-07-30T23:42:26.886Z,94.09
2023-07-30T23:44:29.495Z,94.67
2023-07-30T23:46:32.136Z,95.65
2023-07-30T23:48:34.806Z,95.77
2023-07-30T23:50:37.371Z,96.29
2023-07-30T23:52:39.948Z,96.73
2023-07-30T23:54:42.700Z,97.01
2023-07-30T23:56:45.269Z,97.22
2023-07-30T23:58:47.816Z,96.92
